createdAt,value
2023-02-27T00:01:33.217Z,100067.00
2023-02-27T00:04:36.239Z,100076.59
2023-02-27T00:07:39.075Z,100084.41
2023-02-27T00:10:42.122Z,100097.34
2023-02-27T00:13:44.871Z,100099.66
2023-02-27T00:16:47.997Z,100109.25
2023-02-27T00:19:53.835Z,100111.28
2023-02-27T00:22:56.956Z,100107.94
2023-02-27T00:26:01.098Z,100112.56
2023-02-27T00:29:04.813Z,100110.69
2023-02-27T00:32:07.567Z,100109.34
2023-02-27T00:35:12.520Z,100113.66
2023-02-27T00:38:15.361Z,100118.22
2023-02-27T00:41:18.333Z,100118.56
2023-02-27T00:44:20.908Z,100115.16
2023-02-27T00:47:24.583Z,100114.16
2023-02-27T00:50:29.748Z,100126.88
2023-02-27T00:53:33.086Z,100127.84
2023-02-27T00:56:36.861Z,100135.78
2023-02-27T00:59:39.969Z,100136.63
2023-02-27T01:02:42.786Z,100144.50
2023-02-27T01:05:46.221Z,100145.16
2023-02-27T01:08:49.151Z,100146.16
2023-02-27T01:11:52.402Z,100148.03
2023-02-27T01:14:55.146Z,100155.09
2023-02-27T01:17:58.846Z,100154.97
2023-02-27T01:21:05.098Z,100144.66
2023-02-27T01:24:09.149Z,100146.81
2023-02-27T01:27:11.773Z,100138.28
2023-02-27T01:30:16.830Z,100147.34
2023-02-27T01:33:20.423Z,100138.63
2023-02-27T01:36:24.153Z,100142.00
2023-02-27T01:39:27.708Z,100141.63
2023-02-27T01:42:31.372Z,100137.91
2023-02-27T01:45:44.108Z,100156.91
2023-02-27T01:48:49.005Z,100152.31
2023-02-27T01:52:03.080Z,100156.72
2023-02-27T01:55:08.915Z,100151.38
2023-02-27T01:58:13.522Z,100161.09
2023-02-27T02:01:17.721Z,100156.34
2023-02-27T02:04:47.264Z,100162.00
2023-02-27T02:07:50.468Z,100167.34
2023-02-27T02:10:55.506Z,100173.91
2023-02-27T02:14:00.790Z,100174.12
2023-02-27T02:17:31.609Z,100184.66
2023-02-27T02:21:16.501Z,100180.66
2023-02-27T02:24:34.953Z,100191.44
2023-02-27T02:27:46.412Z,100195.47
2023-02-27T02:30:58.473Z,100196.56
2023-02-27T02:34:29.396Z,100202.00
2023-02-27T02:37:48.167Z,100205.38
2023-02-27T02:41:04.344Z,100205.03
2023-02-27T02:44:33.446Z,100203.88
2023-02-27T02:47:42.368Z,100204.34
2023-02-27T02:50:55.748Z,100207.50
2023-02-27T02:54:25.229Z,100211.44
2023-02-27T02:57:48.559Z,100215.62
2023-02-27T03:01:02.178Z,100217.19
2023-02-27T03:04:13.432Z,100222.63
2023-02-27T03:07:46.811Z,100213.50
2023-02-27T03:10:58.111Z,100214.34
2023-02-27T03:14:05.966Z,100222.22
2023-02-27T03:17:16.863Z,100226.00
2023-02-27T03:20:29.574Z,100227.66
2023-02-27T03:23:40.746Z,100235.09
2023-02-27T03:26:47.796Z,100235.09
2023-02-27T03:29:59.389Z,100233.34
2023-02-27T03:33:09.652Z,100239.50
2023-02-27T03:36:27.575Z,100249.84
2023-02-27T03:40:00.483Z,100242.88
2023-02-27T03:43:24.765Z,100243.97
2023-02-27T03:46:28.762Z,100256.09
2023-02-27T03:49:31.660Z,100249.78
2023-02-27T03:52:34.862Z,100250.97
2023-02-27T03:55:43.378Z,100260.63
2023-02-27T03:58:46.615Z,100258.53
2023-02-27T04:01:50.190Z,100261.63
2023-02-27T04:04:53.452Z,100272.66
2023-02-27T04:08:10.720Z,100261.37
2023-02-27T04:11:29.817Z,100258.09
2023-02-27T04:14:56.614Z,100263.13
2023-02-27T04:18:05.620Z,100259.94
2023-02-27T04:21:14.392Z,100265.31
2023-02-27T04:24:33.447Z,100268.53
2023-02-27T04:28:17.469Z,100265.44
2023-02-27T04:31:54.950Z,100274.19
2023-02-27T04:35:04.452Z,100273.66
2023-02-27T04:38:20.309Z,100277.81
2023-02-27T04:41:29.419Z,100277.91
2023-02-27T04:44:36.315Z,100282.22
2023-02-27T04:47:59.156Z,100286.69
2023-02-27T04:51:13.989Z,100279.47
2023-02-27T04:54:21.656Z,100282.88
2023-02-27T04:57:31.982Z,100293.50
2023-02-27T05:00:37.561Z,100296.66
2023-02-27T05:03:47.084Z,100299.09
2023-02-27T05:06:51.105Z,100307.19
2023-02-27T05:10:05.320Z,100306.03
2023-02-27T05:13:15.050Z,100311.37
2023-02-27T05:16:27.131Z,100316.16
2023-02-27T05:19:32.629Z,100315.78
2023-02-27T05:22:53.514Z,100310.72
2023-02-27T05:26:14.472Z,100321.34
2023-02-27T05:29:42.381Z,100326.62
2023-02-27T05:33:01.935Z,100335.84
2023-02-27T05:36:43.810Z,100330.81
2023-02-27T05:39:49.015Z,100338.97
2023-02-27T05:43:02.282Z,100350.94
2023-02-27T05:46:11.516Z,100352.44
2023-02-27T05:49:20.581Z,100354.84
2023-02-27T05:52:25.853Z,100357.59
2023-02-27T05:55:59.970Z,100360.03
2023-02-27T05:59:10.025Z,100364.34
2023-02-27T06:02:14.260Z,100367.09
2023-02-27T06:05:18.728Z,100379.37
2023-02-27T06:08:22.992Z,100379.22
2023-02-27T06:11:25.973Z,100384.44
2023-02-27T06:14:28.645Z,100393.13
2023-02-27T06:17:31.971Z,100392.00
2023-02-27T06:20:34.819Z,100398.59
2023-02-27T06:23:40.317Z,100412.50
2023-02-27T06:26:43.551Z,100412.34
2023-02-27T06:29:47.411Z,100423.63
2023-02-27T06:32:50.209Z,100430.06
2023-02-27T06:35:53.666Z,100442.75
2023-02-27T06:38:58.102Z,100453.25
2023-02-27T06:42:02.106Z,100456.53
2023-02-27T06:45:09.617Z,100465.09
2023-02-27T06:48:15.774Z,100475.25
2023-02-27T06:51:18.524Z,100475.03
2023-02-27T06:54:23.361Z,100476.09
2023-02-27T06:57:26.401Z,100485.72
2023-02-27T07:00:30.057Z,100486.03
2023-02-27T07:03:33.044Z,100490.94
2023-02-27T07:07:35.189Z,100492.06
2023-02-27T07:09:58.893Z,100492.31
2023-02-27T07:13:03.446Z,100498.69
2023-02-27T07:16:06.718Z,100489.13
2023-02-27T07:19:11.478Z,100501.00
2023-02-27T07:22:14.355Z,100506.00
2023-02-27T07:25:17.433Z,100508.59
2023-02-27T07:28:20.605Z,100509.81
2023-02-27T07:31:23.721Z,100513.84
2023-02-27T07:34:26.494Z,100514.03
2023-02-27T07:37:29.920Z,100518.78
2023-02-27T07:40:33.029Z,100515.41
2023-02-27T07:43:36.727Z,100519.16
2023-02-27T07:46:39.345Z,100517.28
2023-02-27T07:49:51.153Z,100514.47
2023-02-27T07:52:56.684Z,100526.72
2023-02-27T07:56:01.705Z,100526.00
2023-02-27T07:59:04.465Z,100532.59
2023-02-27T08:02:07.692Z,100540.06
2023-02-27T08:05:12.194Z,100538.28
2023-02-27T08:08:14.968Z,100546.78
2023-02-27T08:11:18.590Z,100546.09
2023-02-27T08:14:21.447Z,100541.41
2023-02-27T08:17:24.434Z,100549.37
2023-02-27T08:20:28.310Z,100554.66
2023-02-27T08:23:35.041Z,100558.31
2023-02-27T08:26:37.688Z,100563.09
2023-02-27T08:29:43.640Z,100562.69
2023-02-27T08:32:46.571Z,100567.38
2023-02-27T08:35:49.605Z,100586.72
2023-02-27T08:38:52.153Z,100590.09
2023-02-27T08:41:58.529Z,100588.69
2023-02-27T08:45:02.821Z,100598.62
2023-02-27T08:48:06.076Z,100601.75
2023-02-27T08:51:13.389Z,100604.47
2023-02-27T08:54:19.166Z,100598.31
2023-02-27T08:57:22.169Z,100606.37
2023-02-27T09:00:25.414Z,100609.66
2023-02-27T09:03:28.941Z,100606.28
2023-02-27T09:06:34.355Z,100612.16
2023-02-27T09:09:37.034Z,100614.13
2023-02-27T09:12:40.084Z,100613.75
2023-02-27T09:15:42.759Z,100611.50
2023-02-27T09:18:46.510Z,100611.69
2023-02-27T09:21:49.323Z,100615.16
2023-02-27T09:24:52.729Z,100617.22
2023-02-27T09:27:56.331Z,100616.63
2023-02-27T09:31:04.924Z,100622.63
2023-02-27T09:34:08.327Z,100626.63
2023-02-27T09:37:11.360Z,100623.94
2023-02-27T09:40:40.513Z,100621.97
2023-02-27T09:43:47.440Z,100625.44
2023-02-27T09:46:50.452Z,100628.94
2023-02-27T09:50:01.749Z,100625.06
2023-02-27T09:53:07.422Z,100628.53
2023-02-27T09:56:19.625Z,100624.72
2023-02-27T09:59:44.317Z,100632.53
2023-02-27T10:02:59.963Z,100629.25
2023-02-27T10:06:19.782Z,100636.22
2023-02-27T10:09:44.366Z,100633.13
2023-02-27T10:13:11.135Z,100643.59
2023-02-27T10:16:18.169Z,100632.25
2023-02-27T10:19:28.545Z,100631.56
2023-02-27T10:22:36.194Z,100638.91
2023-02-27T10:25:46.860Z,100631.75
2023-02-27T10:28:49.806Z,100637.84
2023-02-27T10:32:22.000Z,100629.25
2023-02-27T10:35:37.634Z,100621.50
2023-02-27T10:38:51.780Z,100626.25
2023-02-27T10:41:57.058Z,100630.72
2023-02-27T10:45:00.125Z,100622.03
2023-02-27T10:48:04.989Z,100626.91
2023-02-27T10:51:25.501Z,100617.56
2023-02-27T10:54:28.423Z,100630.28
2023-02-27T10:57:42.907Z,100632.59
2023-02-27T11:00:53.583Z,100626.50
2023-02-27T11:03:57.539Z,100633.94
2023-02-27T11:07:03.287Z,100635.34
2023-02-27T11:10:17.618Z,100626.41
2023-02-27T11:13:23.019Z,100624.81
2023-02-27T11:16:26.420Z,100635.12
2023-02-27T11:19:36.702Z,100634.59
2023-02-27T11:22:41.701Z,100633.87
2023-02-27T11:25:44.839Z,100638.69
2023-02-27T11:29:04.767Z,100639.91
2023-02-27T11:32:16.446Z,100642.09
2023-02-27T11:35:34.949Z,100627.13
2023-02-27T11:38:37.934Z,100636.81
2023-02-27T11:41:44.921Z,100645.72
2023-02-27T11:44:57.071Z,100638.22
2023-02-27T11:48:20.685Z,100632.25
2023-02-27T11:51:42.063Z,100640.97
2023-02-27T11:54:53.022Z,100642.53
2023-02-27T11:58:09.679Z,100630.56
2023-02-27T12:01:23.431Z,100621.94
2023-02-27T12:04:47.761Z,100618.19
2023-02-27T12:08:05.754Z,100625.31
2023-02-27T12:11:20.793Z,100624.44
2023-02-27T12:14:30.657Z,100628.66
2023-02-27T12:17:47.986Z,100630.00
2023-02-27T12:21:06.889Z,100634.91
2023-02-27T12:24:19.055Z,100638.53
2023-02-27T12:27:26.314Z,100640.22
2023-02-27T12:30:39.858Z,100641.16
2023-02-27T12:33:52.473Z,100638.16
2023-02-27T12:37:01.381Z,100650.22
2023-02-27T12:40:13.694Z,100644.00
2023-02-27T12:43:40.628Z,100656.53
2023-02-27T12:47:06.802Z,100662.44
2023-02-27T12:50:16.896Z,100651.97
2023-02-27T12:53:52.233Z,100657.03
2023-02-27T12:57:01.181Z,100644.88
2023-02-27T13:00:22.159Z,100659.34
2023-02-27T13:03:48.979Z,100659.84
2023-02-27T13:07:04.961Z,100655.03
2023-02-27T13:10:21.716Z,100655.47
2023-02-27T13:13:38.483Z,100654.66
2023-02-27T13:16:44.910Z,100658.28
2023-02-27T13:19:53.132Z,100656.41
2023-02-27T13:22:58.974Z,100659.78
2023-02-27T13:26:07.357Z,100666.38
2023-02-27T13:29:20.433Z,100669.88
2023-02-27T13:33:01.589Z,100678.94
2023-02-27T13:36:26.520Z,100675.41
2023-02-27T13:39:51.869Z,100669.16
2023-02-27T13:43:01.954Z,100672.16
2023-02-27T13:46:34.054Z,100675.62
2023-02-27T13:49:43.080Z,100671.59
2023-02-27T13:52:46.907Z,100677.66
2023-02-27T13:55:55.401Z,100672.13
2023-02-27T13:59:11.141Z,100677.00
2023-02-27T14:02:14.534Z,100682.41
2023-02-27T14:05:31.257Z,100671.91
2023-02-27T14:08:48.093Z,100669.59
2023-02-27T14:11:58.084Z,100680.47
2023-02-27T14:15:03.057Z,100675.41
2023-02-27T14:18:44.430Z,100674.22
2023-02-27T14:22:03.049Z,100675.97
2023-02-27T14:25:28.791Z,100674.00
2023-02-27T14:28:36.513Z,100670.19
2023-02-27T14:31:44.537Z,100671.47
2023-02-27T14:34:48.378Z,100672.69
2023-02-27T14:37:53.512Z,100676.31
2023-02-27T14:41:22.441Z,100679.81
2023-02-27T14:44:28.643Z,100676.84
2023-02-27T14:47:34.613Z,100676.16
2023-02-27T14:50:40.907Z,100684.25
2023-02-27T14:53:44.389Z,100687.19
2023-02-27T14:57:02.102Z,100686.47
2023-02-27T15:00:05.644Z,100683.72
2023-02-27T15:03:37.844Z,100688.13
2023-02-27T15:06:46.456Z,100691.50
2023-02-27T15:09:50.037Z,100691.50
2023-02-27T15:12:53.138Z,100700.63
2023-02-27T15:16:23.746Z,100703.62
2023-02-27T15:19:28.818Z,100715.91
2023-02-27T15:22:39.818Z,100718.34
2023-02-27T15:25:43.473Z,100723.09
2023-02-27T15:28:48.485Z,100726.88
2023-02-27T15:31:51.763Z,100720.09
2023-02-27T15:34:59.272Z,100734.75
2023-02-27T15:38:19.487Z,100736.50
2023-02-27T15:41:23.317Z,100747.25
2023-02-27T15:44:45.601Z,100746.81
2023-02-27T15:47:49.060Z,100757.38
2023-02-27T15:50:58.210Z,100767.53
2023-02-27T15:54:04.354Z,100767.44
2023-02-27T15:57:07.692Z,100769.03
2023-02-27T16:00:13.187Z,100781.12
2023-02-27T16:03:23.326Z,100777.13
2023-02-27T16:06:40.148Z,100778.19
2023-02-27T16:09:47.493Z,100779.72
2023-02-27T16:12:53.086Z,100784.94
2023-02-27T16:16:05.364Z,100792.84
2023-02-27T16:19:31.646Z,100791.06
2023-02-27T16:22:34.894Z,100797.91
2023-02-27T16:25:37.486Z,100804.31
2023-02-27T16:29:21.067Z,100806.41
2023-02-27T16:32:35.055Z,100809.94
2023-02-27T16:35:39.953Z,100821.53
2023-02-27T16:38:42.759Z,100826.25
2023-02-27T16:41:46.419Z,100832.84
2023-02-27T16:44:49.240Z,100842.59
2023-02-27T16:47:55.011Z,100843.59
2023-02-27T16:50:58.022Z,100849.78
2023-02-27T16:54:01.035Z,100852.91
2023-02-27T16:57:06.049Z,100860.81
2023-02-27T17:00:18.570Z,100865.03
2023-02-27T17:03:21.358Z,100869.62
2023-02-27T17:06:25.686Z,100873.25
2023-02-27T17:09:30.715Z,100872.91
2023-02-27T17:12:34.878Z,100872.00
2023-02-27T17:15:37.941Z,100875.22
2023-02-27T17:22:43.039Z,100885.84
2023-02-27T17:25:46.251Z,100887.03
2023-02-27T17:28:48.909Z,100884.50
2023-02-27T17:31:53.031Z,100889.66
2023-02-27T17:34:56.797Z,100893.31
2023-02-27T17:37:59.805Z,100898.81
2023-02-27T17:41:10.818Z,100896.88
2023-02-27T17:44:14.673Z,100896.09
2023-02-27T17:47:17.956Z,100905.38
2023-02-27T17:50:21.836Z,100901.97
2023-02-27T17:53:25.397Z,100903.50
2023-02-27T17:56:29.362Z,100908.66
2023-02-27T17:59:32.832Z,100915.97
2023-02-27T18:02:37.347Z,100916.50
2023-02-27T18:05:53.179Z,100928.69
2023-02-27T18:08:56.154Z,100944.56
2023-02-27T18:12:02.961Z,100954.81
2023-02-27T18:15:06.587Z,100968.06
2023-02-27T18:18:10.395Z,100960.00
2023-02-27T18:21:21.837Z,100963.47
2023-02-27T18:24:25.966Z,100967.78
2023-02-27T18:27:28.932Z,100963.41
2023-02-27T18:30:37.493Z,100960.25
2023-02-27T18:33:41.467Z,100964.34
2023-02-27T18:36:44.491Z,100954.31
2023-02-27T18:39:48.018Z,100957.91
2023-02-27T18:42:52.497Z,100959.78
2023-02-27T18:45:55.547Z,100962.56
2023-02-27T18:48:59.667Z,100975.69
2023-02-27T18:52:04.027Z,100980.91
2023-02-27T18:55:09.601Z,100982.63
2023-02-27T18:58:13.904Z,100995.56
2023-02-27T19:01:23.845Z,100996.00
2023-02-27T19:04:26.775Z,101002.87
2023-02-27T19:07:31.290Z,101009.56
2023-02-27T19:10:38.297Z,101013.28
2023-02-27T19:13:41.689Z,101009.84
2023-02-27T19:16:46.189Z,101016.94
2023-02-27T19:19:56.053Z,101017.75
2023-02-27T19:23:02.634Z,101029.22
2023-02-27T19:26:06.919Z,101035.16
2023-02-27T19:29:09.938Z,101035.19
2023-02-27T19:32:14.881Z,101038.53
2023-02-27T19:35:19.174Z,101048.47
2023-02-27T19:38:23.536Z,101032.81
2023-02-27T19:41:28.009Z,101043.19
2023-02-27T19:44:31.280Z,101034.78
2023-02-27T19:47:36.630Z,101027.75
2023-02-27T19:50:40.776Z,101025.91
2023-02-27T19:53:46.007Z,101029.44
2023-02-27T19:56:49.090Z,101038.06
2023-02-27T20:00:00.589Z,101022.69
2023-02-27T20:03:05.053Z,101043.47
2023-02-27T20:06:24.370Z,101054.44
2023-02-27T20:09:27.773Z,101066.50
2023-02-27T20:12:30.921Z,101073.38
2023-02-27T20:15:43.860Z,101078.47
2023-02-27T20:18:47.921Z,101082.19
2023-02-27T20:21:52.662Z,101071.69
2023-02-27T20:24:56.843Z,101076.00
2023-02-27T20:28:02.510Z,101087.44
2023-02-27T20:31:12.862Z,101080.44
2023-02-27T20:34:23.756Z,101075.25
2023-02-27T20:37:31.997Z,101082.41
2023-02-27T20:40:34.804Z,101081.50
2023-02-27T20:43:38.830Z,101084.28
2023-02-27T20:46:43.594Z,101091.91
2023-02-27T20:49:46.464Z,101094.50
2023-02-27T20:52:53.777Z,101092.81
2023-02-27T20:55:57.577Z,101106.66
2023-02-27T20:59:03.847Z,101105.00
2023-02-27T21:02:09.833Z,101089.25
2023-02-27T21:05:13.694Z,101096.28
2023-02-27T21:08:17.582Z,101098.44
2023-02-27T21:11:27.796Z,101098.84
2023-02-27T21:14:31.190Z,101113.53
2023-02-27T21:17:33.776Z,101106.66
2023-02-27T21:20:39.840Z,101125.88
2023-02-27T21:23:43.762Z,101114.56
2023-02-27T21:26:46.643Z,101137.12
2023-02-27T21:29:50.608Z,101140.47
2023-02-27T21:32:54.057Z,101139.69
2023-02-27T21:35:56.775Z,101132.88
2023-02-27T21:39:02.947Z,101138.72
2023-02-27T21:42:06.808Z,101136.94
2023-02-27T21:45:10.467Z,101124.97
2023-02-27T21:48:13.718Z,101127.69
2023-02-27T21:51:23.675Z,101132.97
2023-02-27T21:54:32.649Z,101133.88
2023-02-27T21:57:41.879Z,101140.53
2023-02-27T22:00:45.118Z,101144.00
2023-02-27T22:03:53.626Z,101141.41
2023-02-27T22:06:56.643Z,101128.22
2023-02-27T22:10:00.000Z,101123.91
2023-02-27T22:13:02.979Z,101124.69
2023-02-27T22:16:09.057Z,101130.81
2023-02-27T22:19:19.815Z,101130.03
2023-02-27T22:22:23.285Z,101133.59
2023-02-27T22:25:26.297Z,101135.31
2023-02-27T22:28:33.594Z,101134.38
2023-02-27T22:31:38.126Z,101137.06
2023-02-27T22:34:41.279Z,101137.94
2023-02-27T22:37:47.301Z,101125.59
2023-02-27T22:40:50.689Z,101127.47
2023-02-27T22:43:53.880Z,101125.66
2023-02-27T22:46:57.067Z,101119.44
2023-02-27T22:50:00.041Z,101135.91
2023-02-27T22:53:05.165Z,101143.78
2023-02-27T22:56:17.445Z,101147.25
2023-02-27T22:59:21.654Z,101151.50
2023-02-27T23:02:24.557Z,101136.47
2023-02-27T23:05:30.090Z,101152.03
2023-02-27T23:08:33.670Z,101148.47
2023-02-27T23:11:36.785Z,101151.31
2023-02-27T23:14:39.518Z,101134.59
2023-02-27T23:17:52.930Z,101143.75
2023-02-27T23:21:03.791Z,101152.28
2023-02-27T23:24:12.395Z,101149.59
2023-02-27T23:27:25.710Z,101140.06
2023-02-27T23:30:29.809Z,101140.53
2023-02-27T23:33:33.064Z,101138.72
2023-02-27T23:36:37.139Z,101142.81
2023-02-27T23:39:39.759Z,101141.06
2023-02-27T23:42:42.872Z,101153.19
2023-02-27T23:45:45.760Z,101165.31
2023-02-27T23:48:49.441Z,101158.31
2023-02-27T23:51:52.037Z,101161.88
2023-02-27T23:54:55.217Z,101169.13
2023-02-27T23:57:59.821Z,101171.75
